createdAt,value
2022-08-30T00:03:30.091Z,17.41
2022-08-30T00:08:32.584Z,17.4
2022-08-30T00:13:37.951Z,17.33
2022-08-30T00:18:40.757Z,17.31
2022-08-30T00:23:43.474Z,17.32
2022-08-30T00:28:46.478Z,17.32
2022-08-30T00:33:49.090Z,17.29
2022-08-30T00:38:51.776Z,17.27
2022-08-30T00:43:54.501Z,17.33
2022-08-30T00:48:57.215Z,17.3
2022-08-30T00:53:59.773Z,17.21
2022-08-30T00:59:02.410Z,17.18
2022-08-30T01:09:07.920Z,17.14
2022-08-30T01:24:19.040Z,17.1
2022-08-30T01:29:21.585Z,17.18
2022-08-30T01:44:29.729Z,17.19
2022-08-30T01:49:32.515Z,17.13
2022-08-30T01:54:36.972Z,17.15
2022-08-30T02:04:40.507Z,17.11
2022-08-30T02:09:43.098Z,17.08
2022-08-30T02:14:45.837Z,16.99
2022-08-30T02:19:48.500Z,17.02
2022-08-30T02:24:51.032Z,17.04
2022-08-30T02:29:56.512Z,16.97
2022-08-30T02:34:59.003Z,16.87
2022-08-30T02:40:01.797Z,16.7
2022-08-30T02:45:05.189Z,16.62
2022-08-30T02:50:08.004Z,16.62
2022-08-30T02:55:10.337Z,16.56
2022-08-30T03:00:13.046Z,16.53
2022-08-30T03:10:18.695Z,16.41
2022-08-30T03:15:21.435Z,16.47
2022-08-30T03:20:24.080Z,16.44
2022-08-30T03:25:26.803Z,16.4
2022-08-30T03:30:29.323Z,16.43
2022-08-30T03:35:33.147Z,16.53
2022-08-30T03:40:34.637Z,16.56
2022-08-30T03:50:42.909Z,16.6
2022-08-30T03:55:45.611Z,16.57
2022-08-30T04:00:48.163Z,16.62
2022-08-30T04:05:50.653Z,16.58
2022-08-30T04:10:53.137Z,16.56
2022-08-30T04:15:55.931Z,16.5
2022-08-30T04:20:58.568Z,16.42
2022-08-30T04:26:01.301Z,16.4
2022-08-30T04:36:06.478Z,16.35
2022-08-30T04:41:09.201Z,16.3
2022-08-30T04:46:14.662Z,16.25
2022-08-30T04:51:17.191Z,16.44
2022-08-30T04:56:19.913Z,16.6
2022-08-30T05:01:23.727Z,16.57
2022-08-30T05:11:28.080Z,17.01
2022-08-30T05:16:30.728Z,16.98
2022-08-30T05:21:33.662Z,17.2
2022-08-30T05:26:36.316Z,17.21
2022-08-30T05:31:39.013Z,17.3
2022-08-30T05:36:41.609Z,17.37
2022-08-30T05:41:44.284Z,17.58
2022-08-30T05:46:46.971Z,17.88
2022-08-30T05:51:52.792Z,18.36
2022-08-30T05:56:55.497Z,18.65
2022-08-30T06:01:58.075Z,18.94
2022-08-30T06:07:00.826Z,18.66
2022-08-30T06:12:03.313Z,18.85
2022-08-30T06:17:06.093Z,19.28
2022-08-30T06:22:08.940Z,19.29
2022-08-30T06:27:54.471Z,19.66
2022-08-30T06:32:54.342Z,19.85
2022-08-30T06:43:00.348Z,19.48
2022-08-30T06:53:05.755Z,20.15
2022-08-30T06:58:08.482Z,19.99
2022-08-30T07:03:11.095Z,20.38
2022-08-30T07:13:16.620Z,20.27
2022-08-30T07:23:22.093Z,20.39
2022-08-30T07:28:25.114Z,20.51
2022-08-30T07:33:27.966Z,20.39
2022-08-30T07:38:30.787Z,21.09
2022-08-30T07:43:33.484Z,20.33
2022-08-30T07:48:36.090Z,20.54
2022-08-30T07:53:38.685Z,20.5
2022-08-30T07:58:44.675Z,21.76
2022-08-30T08:08:50.260Z,20.77
2022-08-30T08:13:53.086Z,20.28
2022-08-30T08:18:55.141Z,19.86
2022-08-30T08:23:57.625Z,19.97
2022-08-30T08:29:03.010Z,20.5
2022-08-30T08:34:06.028Z,20.64
2022-08-30T08:39:08.410Z,20.9
2022-08-30T08:44:13.857Z,20.8
2022-08-30T08:49:34.802Z,21.34
2022-08-30T08:54:37.758Z,21.28
2022-08-30T08:59:41.072Z,21.43
2022-08-30T09:04:43.664Z,21.6
2022-08-30T09:09:48.934Z,21.52
2022-08-30T09:14:51.398Z,21.23
2022-08-30T09:19:54.323Z,21
2022-08-30T09:24:59.826Z,20.48
2022-08-30T09:30:02.339Z,20.59
2022-08-30T09:35:07.695Z,20.43
2022-08-30T09:40:10.397Z,20.52
2022-08-30T09:45:13.009Z,20.88
2022-08-30T09:50:15.605Z,20.65
2022-08-30T09:55:18.247Z,20.75
2022-08-30T10:00:21.458Z,21.16
2022-08-30T10:10:27.192Z,21.62
2022-08-30T10:15:29.853Z,21.45
2022-08-30T10:20:32.385Z,21.58
2022-08-30T10:25:38.243Z,21.69
2022-08-30T10:30:41.283Z,21.85
2022-08-30T10:35:44.101Z,21.91
2022-08-30T10:40:46.642Z,22.23
2022-08-30T10:45:49.313Z,22.46
2022-08-30T11:00:57.957Z,22.94
2022-08-30T11:11:03.520Z,23.55
2022-08-30T11:16:05.927Z,23.82
2022-08-30T11:21:12.376Z,23.71
2022-08-30T11:26:12.121Z,24.62
2022-08-30T11:36:16.839Z,24.33
2022-08-30T11:41:19.912Z,23.7
2022-08-30T11:51:25.309Z,25.16
2022-08-30T11:56:27.825Z,23.72
2022-08-30T12:01:42.161Z,23.32
2022-08-30T12:06:32.819Z,25.07
2022-08-30T12:11:35.451Z,24.09
2022-08-30T12:16:38.466Z,24.15
2022-08-30T12:21:43.656Z,23.96
2022-08-30T12:26:43.390Z,24.25
2022-08-30T12:31:46.238Z,24.23
2022-08-30T12:36:48.864Z,24.23
2022-08-30T12:41:51.450Z,23.99
2022-08-30T12:51:56.449Z,23.78
2022-08-30T13:02:01.699Z,24.64
2022-08-30T13:07:04.044Z,23.97
2022-08-30T13:12:06.358Z,23.43
2022-08-30T13:17:09.017Z,23.39
2022-08-30T13:22:11.609Z,23.22
2022-08-30T13:27:14.190Z,22.99
2022-08-30T13:32:19.839Z,23.62
2022-08-30T13:42:32.863Z,23.67
2022-08-30T14:07:38.541Z,23.41
2022-08-30T14:13:07.724Z,23.47
2022-08-30T14:22:49.273Z,23.07
2022-08-30T14:27:52.220Z,22.99
2022-08-30T14:32:54.870Z,23.19
2022-08-30T14:37:57.596Z,23.39
2022-08-30T14:43:00.284Z,22.97
2022-08-30T14:53:05.287Z,22.87
2022-08-30T15:03:10.649Z,22.62
2022-08-30T15:08:16.443Z,22.53
2022-08-30T15:13:18.914Z,22.51
2022-08-30T15:18:21.533Z,22.21
2022-08-30T15:23:24.913Z,22.09
2022-08-30T15:33:29.599Z,22.19
2022-08-30T15:43:40.551Z,22.07
2022-08-30T15:48:45.371Z,21.84
2022-08-30T15:53:45.347Z,21.7
2022-08-30T16:03:50.686Z,21.95
2022-08-30T16:08:53.211Z,21.92
2022-08-30T16:13:55.703Z,21.71
2022-08-30T16:19:01.286Z,21.62
2022-08-30T16:24:03.952Z,21.6
2022-08-30T16:29:07.111Z,21.61
2022-08-30T16:34:13.165Z,21.45
2022-08-30T16:39:15.852Z,21.34
2022-08-30T16:44:18.492Z,21.36
2022-08-30T16:49:20.910Z,21.33
2022-08-30T16:54:23.519Z,21.28
2022-08-30T16:59:26.110Z,21.14
2022-08-30T17:04:31.709Z,21.07
2022-08-30T17:09:34.624Z,21.09
2022-08-30T17:14:37.084Z,21.01
2022-08-30T17:19:40.988Z,20.93
2022-08-30T17:24:42.455Z,20.89
2022-08-30T17:29:45.058Z,20.81
2022-08-30T17:34:47.676Z,20.75
2022-08-30T17:39:50.537Z,20.67
2022-08-30T17:49:55.847Z,20.51
2022-08-30T17:54:58.629Z,20.38
2022-08-30T18:00:01.257Z,20.22
2022-08-30T18:05:04.208Z,20.12
2022-08-30T18:10:06.930Z,20.02
2022-08-30T18:15:12.091Z,19.94
2022-08-30T18:20:12.161Z,19.85
2022-08-30T18:30:17.692Z,19.71
2022-08-30T18:35:20.287Z,19.67
2022-08-30T18:40:22.974Z,19.62
2022-08-30T18:50:29.818Z,19.55
2022-08-30T19:00:36.023Z,19.48
2022-08-30T19:10:41.509Z,19.29
2022-08-30T19:15:44.493Z,19.22
2022-08-30T19:20:47.356Z,19.13
2022-08-30T19:25:51.642Z,19.07
2022-08-30T19:30:52.296Z,19.02
2022-08-30T19:35:55.363Z,18.97
2022-08-30T19:40:58.011Z,18.89
2022-08-30T19:46:00.488Z,18.89
2022-08-30T19:51:03.164Z,18.84
2022-08-30T19:56:05.927Z,18.77
2022-08-30T20:01:12.733Z,18.72
2022-08-30T20:06:11.747Z,18.69
2022-08-30T20:11:14.263Z,18.63
2022-08-30T20:16:17.036Z,18.6
2022-08-30T20:21:19.725Z,18.54
2022-08-30T20:26:22.479Z,18.46
2022-08-30T20:31:25.514Z,18.43
2022-08-30T20:36:27.982Z,18.4
2022-08-30T20:41:30.740Z,18.32
2022-08-30T20:46:34.378Z,18.19
2022-08-30T20:51:36.373Z,18.09
2022-08-30T20:56:38.941Z,18.02
2022-08-30T21:01:41.732Z,17.91
2022-08-30T21:06:44.652Z,17.83
2022-08-30T21:11:47.253Z,17.77
2022-08-30T21:16:50.076Z,17.69
2022-08-30T21:21:52.806Z,17.64
2022-08-30T21:26:58.501Z,17.5
2022-08-30T21:32:01.321Z,17.48
2022-08-30T21:37:04.068Z,17.4
2022-08-30T21:42:06.752Z,17.43
2022-08-30T21:47:09.615Z,17.46
2022-08-30T21:52:12.333Z,17.46
2022-08-30T21:57:14.814Z,17.4
2022-08-30T22:07:20.413Z,17.31
2022-08-30T22:12:26.010Z,17.26
2022-08-30T22:17:28.539Z,17.19
2022-08-30T22:22:31.179Z,17.19
2022-08-30T22:37:47.638Z,17.01
2022-08-30T22:47:50.500Z,16.91
2022-08-30T22:52:53.235Z,16.82
2022-08-30T23:02:58.851Z,16.74
2022-08-30T23:08:01.544Z,16.64
2022-08-30T23:13:04.582Z,16.54
2022-08-30T23:18:06.965Z,16.51
2022-08-30T23:28:15.034Z,16.42
2022-08-30T23:33:18.036Z,16.42
2022-08-30T23:43:23.461Z,16.34
2022-08-30T23:48:29.803Z,16.31
2022-08-30T23:53:32.392Z,16.29
2022-08-30T23:58:35.473Z,16.24
